Time;durP1;ratioP1;P1;durP2;ratioP2;P2;SDS_P1;SDS_P2;PMS_P1;PMS_P2;Temp;Humidity;BMP_temperature;BMP_pressure;BME280_temperature;BME280_humidity;BME280_pressure;Samples;Min_cycle;Max_cycle;Signal;HPM_P1;HPM_P2
2022/03/12 00:01:21;;;;;;;24.40;13.40;;;;;;;;;;5036403;28;20348;-76
2022/03/12 00:03:50;;;;;;;26.33;13.30;;;;;;;;;;5035972;28;20046;-74
2022/03/12 00:06:18;;;;;;;28.45;13.80;;;;;;;;;;5037143;28;20107;-76
2022/03/12 00:08:47;;;;;;;25.77;13.35;;;;;;;;;;5036545;28;20136;-75
2022/03/12 00:11:21;;;;;;;24.90;12.90;;;;;;;;;;5033262;28;20047;-78
2022/03/12 00:14:13;;;;;;;26.42;14.15;;;;;;;;;;5033600;28;20659;-76
2022/03/12 00:16:41;;;;;;;24.88;13.18;;;;;;;;;;5034967;28;20128;-76
2022/03/12 00:19:09;;;;;;;22.48;13.30;;;;;;;;;;5040794;28;20053;-76
2022/03/12 00:21:41;;;;;;;24.48;13.10;;;;;;;;;;5033352;28;20098;-76
2022/03/12 00:24:12;;;;;;;25.52;12.88;;;;;;;;;;5039921;28;20137;-76
2022/03/12 00:26:43;;;;;;;24.88;13.18;;;;;;;;;;5037080;28;20136;-77
2022/03/12 00:29:15;;;;;;;26.92;13.93;;;;;;;;;;5035277;28;20654;-70
2022/03/12 00:31:59;;;;;;;23.92;14.07;;;;;;;;;;5034574;28;20379;-70
2022/03/12 00:34:26;;;;;;;24.33;12.75;;;;;;;;;;5035247;28;20060;-76
2022/03/12 00:36:54;;;;;;;26.70;13.65;;;;;;;;;;5034413;28;20528;-77
2022/03/12 00:39:22;;;;;;;27.50;13.50;;;;;;;;;;5034551;28;20136;-77
2022/03/12 00:41:52;;;;;;;27.45;14.20;;;;;;;;;;5031861;28;20132;-77
2022/03/12 00:44:20;;;;;;;23.52;13.50;;;;;;;;;;5033176;28;20599;-78
2022/03/12 00:46:48;;;;;;;22.15;12.32;;;;;;;;;;5036330;28;20103;-77
2022/03/12 00:49:16;;;;;;;23.17;11.85;;;;;;;;;;5035692;28;20140;-77
2022/03/12 00:51:44;;;;;;;27.20;13.32;;;;;;;;;;5036975;28;20080;-77
2022/03/12 00:54:13;;;;;;;26.58;14.80;;;;;;;;;;5032038;28;20353;-77
2022/03/12 00:56:44;;;;;;;21.50;12.75;;;;;;;;;;5040478;28;20044;-77
2022/03/12 00:59:13;;;;;;;22.52;12.95;;;;;;;;;;5034818;28;20059;-77
2022/03/12 01:01:41;;;;;;;27.83;13.77;;;;;;;;;;5032549;28;20163;-78
2022/03/12 01:04:09;;;;;;;26.90;14.13;;;;;;;;;;5035887;28;20440;-76
2022/03/12 01:06:37;;;;;;;24.67;12.75;;;;;;;;;;5036600;28;20052;-77
2022/03/12 01:09:05;;;;;;;26.63;14.68;;;;;;;;;;5033757;28;20053;-76
2022/03/12 01:11:34;;;;;;;30.00;13.80;;;;;;;;;;5036266;28;20087;-76
2022/03/12 01:14:02;;;;;;;25.80;14.57;;;;;;;;;;5031124;28;20085;-77
2022/03/12 01:16:31;;;;;;;22.60;12.73;;;;;;;;;;5035638;28;20099;-76
2022/03/12 01:18:59;;;;;;;23.42;14.13;;;;;;;;;;5031314;28;20049;-75
2022/03/12 01:21:26;;;;;;;26.60;14.30;;;;;;;;;;5040654;28;20152;-76
2022/03/12 01:23:54;;;;;;;25.77;13.23;;;;;;;;;;5036607;28;20105;-76
2022/03/12 01:26:23;;;;;;;26.02;12.98;;;;;;;;;;5034321;28;20291;-77
2022/03/12 01:28:51;;;;;;;23.58;13.23;;;;;;;;;;5031723;28;20061;-77
2022/03/12 01:31:18;;;;;;;21.95;12.00;;;;;;;;;;5039659;28;20044;-76
2022/03/12 01:33:48;;;;;;;22.30;12.52;;;;;;;;;;5039794;28;20546;-77
2022/03/12 01:36:16;;;;;;;22.08;12.35;;;;;;;;;;5045083;28;20511;-76
2022/03/12 01:38:49;;;;;;;24.25;12.68;;;;;;;;;;5045154;28;20044;-76
2022/03/12 01:41:20;;;;;;;21.80;11.77;;;;;;;;;;5039908;28;20049;-77
2022/03/12 01:43:50;;;;;;;23.42;13.52;;;;;;;;;;5036735;28;20041;-70
2022/03/12 01:46:34;;;;;;;23.52;12.52;;;;;;;;;;5035629;28;20057;-69
2022/03/12 01:49:14;;;;;;;22.05;12.23;;;;;;;;;;5035181;28;20063;-69
2022/03/12 01:51:48;;;;;;;21.23;11.50;;;;;;;;;;5039516;28;20055;-70
2022/03/12 01:54:21;;;;;;;23.90;12.55;;;;;;;;;;5038005;28;20060;-70
2022/03/12 01:56:56;;;;;;;24.38;12.52;;;;;;;;;;5036262;28;20140;-69
2022/03/12 01:59:27;;;;;;;20.25;12.55;;;;;;;;;;5033703;28;20365;-70
2022/03/12 02:02:13;;;;;;;24.38;11.90;;;;;;;;;;5036925;28;20347;-70
2022/03/12 02:04:52;;;;;;;22.48;12.38;;;;;;;;;;5034032;28;20275;-70
2022/03/12 02:07:23;;;;;;;23.38;12.23;;;;;;;;;;5035471;28;20147;-70
2022/03/12 02:09:55;;;;;;;21.25;11.75;;;;;;;;;;5033032;28;20076;-70
2022/03/12 02:15:18;;;;;;;16.85;9.80;;;;;;;;;;5036025;28;20448;-70
2022/03/12 02:17:50;;;;;;;19.75;10.63;;;;;;;;;;5030980;28;20049;-70
2022/03/12 02:20:22;;;;;;;19.60;11.10;;;;;;;;;;5036705;28;20532;-69
2022/03/12 02:22:59;;;;;;;17.13;9.25;;;;;;;;;;5036332;28;20052;-71
2022/03/12 02:25:39;;;;;;;18.77;10.70;;;;;;;;;;5034356;28;20432;-70
2022/03/12 02:28:19;;;;;;;;;;;;;;;;;;5032488;28;20306;-70
2022/03/12 02:30:52;;;;;;;17.55;8.93;;;;;;;;;;5037140;28;20400;-70
2022/03/12 02:33:28;;;;;;;19.98;10.48;;;;;;;;;;5034894;28;20053;-70
2022/03/12 02:36:06;;;;;;;19.40;9.70;;;;;;;;;;5034015;28;20053;-70
2022/03/12 02:38:36;;;;;;;20.67;9.55;;;;;;;;;;5035538;28;20045;-69
2022/03/12 02:41:25;;;;;;;16.27;9.23;;;;;;;;;;5033753;28;20073;-70
2022/03/12 02:43:58;;;;;;;17.80;9.15;;;;;;;;;;5035428;28;20059;-70
2022/03/12 02:46:41;;;;;;;18.20;9.13;;;;;;;;;;5030370;28;20042;-69
2022/03/12 02:49:17;;;;;;;17.05;8.75;;;;;;;;;;5028918;28;20053;-69
2022/03/12 02:51:47;;;;;;;18.73;9.32;;;;;;;;;;5030139;28;20061;-69
2022/03/12 02:54:17;;;;;;;19.90;10.40;;;;;;;;;;5030935;28;20113;-69
2022/03/12 02:56:59;;;;;;;17.85;9.13;;;;;;;;;;5033175;28;20521;-69
2022/03/12 02:59:35;;;;;;;17.70;8.50;;;;;;;;;;5034191;28;20056;-69
2022/03/12 03:02:11;;;;;;;19.10;9.05;;;;;;;;;;5031579;28;20053;-69
2022/03/12 03:04:44;;;;;;;16.02;8.63;;;;;;;;;;5031711;28;20052;-69
2022/03/12 03:07:18;;;;;;;16.02;8.07;;;;;;;;;;5031265;28;20053;-69
2022/03/12 03:09:48;;;;;;;15.93;8.43;;;;;;;;;;5029851;28;21468;-71
2022/03/12 03:15:16;;;;;;;17.05;8.90;;;;;;;;;;5031828;28;20144;-70
2022/03/12 03:17:47;;;;;;;17.97;8.97;;;;;;;;;;5029999;28;20053;-70
2022/03/12 03:20:16;;;;;;;15.02;7.75;;;;;;;;;;5032045;28;20106;-69
2022/03/12 03:22:45;;;;;;;16.92;7.72;;;;;;;;;;5032862;28;20132;-69
2022/03/12 03:25:32;;;;;;;14.90;7.50;;;;;;;;;;5030013;28;20123;-69
2022/03/12 03:28:05;;;;;;;12.63;6.60;;;;;;;;;;5033516;28;20048;-69
2022/03/12 03:30:39;;;;;;;14.95;7.20;;;;;;;;;;5029104;28;20547;-69
2022/03/12 03:33:09;;;;;;;14.93;7.68;;;;;;;;;;5029987;28;20135;-70
2022/03/12 03:35:44;;;;;;;13.65;6.70;;;;;;;;;;5033999;28;20049;-70
2022/03/12 03:38:20;;;;;;;15.63;6.75;;;;;;;;;;5029842;28;20155;-70
2022/03/12 03:40:54;;;;;;;11.80;5.80;;;;;;;;;;5034449;28;20171;-69
2022/03/12 03:43:36;;;;;;;11.63;6.55;;;;;;;;;;5029804;28;20534;-70
2022/03/12 03:46:22;;;;;;;11.18;5.68;;;;;;;;;;5044829;28;20041;-70
2022/03/12 03:48:55;;;;;;;13.23;6.25;;;;;;;;;;5029322;28;20064;-70
2022/03/12 03:51:27;;;;;;;11.60;5.40;;;;;;;;;;5034540;28;20057;-70
2022/03/12 03:56:53;;;;;;;10.75;5.85;;;;;;;;;;5032563;28;20052;-70
2022/03/12 03:59:29;;;;;;;12.55;5.25;;;;;;;;;;5031808;28;20049;-69
2022/03/12 04:02:00;;;;;;;11.20;5.43;;;;;;;;;;5028449;28;20052;-70
2022/03/12 04:04:38;;;;;;;14.05;5.80;;;;;;;;;;5030900;28;20144;-70
2022/03/12 04:07:14;;;;;;;13.18;6.00;;;;;;;;;;5032581;28;20434;-70
2022/03/12 04:09:41;;;;;;;12.77;6.20;;;;;;;;;;5032779;28;20639;-78
2022/03/12 04:12:09;;;;;;;13.45;5.43;;;;;;;;;;5032507;28;20199;-76
2022/03/12 04:14:37;;;;;;;12.88;5.35;;;;;;;;;;5029122;28;20080;-76
2022/03/12 04:17:06;;;;;;;11.52;5.70;;;;;;;;;;5030853;28;20454;-77
2022/03/12 04:19:34;;;;;;;12.20;5.65;;;;;;;;;;5033300;28;20103;-76
2022/03/12 04:22:03;;;;;;;12.10;5.25;;;;;;;;;;5032159;28;20088;-77
2022/03/12 04:24:31;;;;;;;14.45;5.95;;;;;;;;;;5036132;28;20067;-76
2022/03/12 04:26:58;;;;;;;14.70;6.65;;;;;;;;;;5033653;28;20144;-77
2022/03/12 04:29:26;;;;;;;15.68;6.28;;;;;;;;;;5032394;28;20078;-77
2022/03/12 04:31:54;;;;;;;12.30;6.25;;;;;;;;;;5031573;28;20084;-76
2022/03/12 04:34:23;;;;;;;16.27;7.25;;;;;;;;;;5031785;28;20526;-76
2022/03/12 04:36:52;;;;;;;12.93;5.40;;;;;;;;;;5030880;28;20041;-77
2022/03/12 04:39:20;;;;;;;13.13;6.47;;;;;;;;;;5032693;28;20703;-76
2022/03/12 04:41:48;;;;;;;11.10;5.80;;;;;;;;;;5029894;28;20052;-76
2022/03/12 04:44:15;;;;;;;16.65;6.63;;;;;;;;;;5031763;28;20696;-76
2022/03/12 04:46:43;;;;;;;14.15;6.50;;;;;;;;;;5030957;28;20041;-76
2022/03/12 04:49:11;;;;;;;14.18;6.22;;;;;;;;;;5030397;28;20077;-76
2022/03/12 04:51:43;;;;;;;16.85;7.13;;;;;;;;;;5035720;28;20045;-76
2022/03/12 04:54:11;;;;;;;18.08;7.32;;;;;;;;;;5028054;28;20171;-76
2022/03/12 04:56:38;;;;;;;15.30;6.93;;;;;;;;;;5027214;28;20054;-76
2022/03/12 04:59:06;;;;;;;18.10;6.65;;;;;;;;;;5030560;28;20059;-76
2022/03/12 05:01:33;;;;;;;19.40;7.10;;;;;;;;;;5031940;28;20139;-76
2022/03/12 05:04:01;;;;;;;14.25;7.05;;;;;;;;;;5034210;28;20103;-75
2022/03/12 05:06:29;;;;;;;15.27;6.32;;;;;;;;;;5033249;28;20342;-77
2022/03/12 05:08:58;;;;;;;13.85;7.00;;;;;;;;;;5031794;28;20142;-76
2022/03/12 05:11:26;;;;;;;15.52;7.03;;;;;;;;;;5034433;28;20103;-75
2022/03/12 05:13:54;;;;;;;19.35;6.88;;;;;;;;;;5033859;28;20084;-75
2022/03/12 05:16:22;;;;;;;19.70;7.32;;;;;;;;;;5032177;28;20565;-75
2022/03/12 05:18:50;;;;;;;17.05;7.93;;;;;;;;;;5034415;28;20102;-78
2022/03/12 05:21:17;;;;;;;17.13;7.53;;;;;;;;;;5034364;28;20456;-75
2022/03/12 05:24:10;;;;;;;18.92;8.15;;;;;;;;;;5032884;28;20056;-77
2022/03/12 05:26:38;;;;;;;18.45;6.88;;;;;;;;;;5032243;28;20140;-78
2022/03/12 05:29:05;;;;;;;18.00;7.75;;;;;;;;;;5032043;28;20608;-75
2022/03/12 05:31:33;;;;;;;16.40;7.45;;;;;;;;;;5035329;28;20144;-76
2022/03/12 05:34:01;;;;;;;20.30;8.05;;;;;;;;;;5032867;28;20096;-77
2022/03/12 05:36:28;;;;;;;18.92;8.27;;;;;;;;;;5035164;28;20397;-76
2022/03/12 05:38:56;;;;;;;15.73;6.63;;;;;;;;;;5033682;28;20242;-76
2022/03/12 05:41:26;;;;;;;16.90;7.60;;;;;;;;;;5032285;28;20726;-75
2022/03/12 05:43:54;;;;;;;16.90;6.75;;;;;;;;;;5033389;28;20496;-76
2022/03/12 05:46:22;;;;;;;14.68;6.90;;;;;;;;;;5035175;28;20296;-76
2022/03/12 05:48:51;;;;;;;13.80;6.53;;;;;;;;;;5032610;28;20045;-76
2022/03/12 05:51:19;;;;;;;15.30;6.30;;;;;;;;;;5032174;28;20098;-69
2022/03/12 05:53:49;;;;;;;15.95;7.07;;;;;;;;;;5029578;28;20156;-69
2022/03/12 05:56:17;;;;;;;17.48;7.35;;;;;;;;;;5033095;28;20076;-69
2022/03/12 05:59:11;;;;;;;16.88;7.20;;;;;;;;;;5032087;28;20053;-69
2022/03/12 06:01:41;;;;;;;17.83;7.28;;;;;;;;;;5030271;28;20191;-69
2022/03/12 06:04:22;;;;;;;14.25;7.32;;;;;;;;;;5032173;28;20067;-69
2022/03/12 06:06:53;;;;;;;13.88;6.25;;;;;;;;;;5033384;28;20041;-69
2022/03/12 06:09:28;;;;;;;14.93;6.60;;;;;;;;;;5030295;28;20057;-69
2022/03/12 06:11:58;;;;;;;15.25;6.45;;;;;;;;;;5033039;28;20080;-69
2022/03/12 06:14:28;;;;;;;12.35;5.32;;;;;;;;;;5033079;28;20536;-69
2022/03/12 06:16:59;;;;;;;14.18;6.95;;;;;;;;;;5031921;28;20490;-69
2022/03/12 06:19:29;;;;;;;14.70;6.57;;;;;;;;;;5033977;28;20070;-69
2022/03/12 06:21:58;;;;;;;14.07;6.50;;;;;;;;;;5034855;28;20069;-69
2022/03/12 06:24:32;;;;;;;13.52;6.25;;;;;;;;;;5033286;28;20045;-69
2022/03/12 06:27:03;;;;;;;12.60;6.07;;;;;;;;;;5031402;28;20151;-69
2022/03/12 06:29:37;;;;;;;11.05;5.65;;;;;;;;;;5031734;28;20059;-69
2022/03/12 06:32:14;;;;;;;12.93;6.20;;;;;;;;;;5032721;28;20168;-69
2022/03/12 06:34:43;;;;;;;14.07;6.28;;;;;;;;;;5030194;28;20139;-69
2022/03/12 06:37:13;;;;;;;11.95;5.55;;;;;;;;;;5033754;28;20112;-69
2022/03/12 06:39:41;;;;;;;10.50;5.47;;;;;;;;;;5036058;28;20105;-69
2022/03/12 06:42:13;;;;;;;12.70;5.35;;;;;;;;;;5030928;28;20417;-69
2022/03/12 06:45:15;;;;;;;9.73;4.47;;;;;;;;;;5033046;28;20503;-70
2022/03/12 06:47:49;;;;;;;10.45;5.10;;;;;;;;;;5032461;28;20535;-69
2022/03/12 06:50:41;;;;;;;15.10;5.25;;;;;;;;;;5030109;28;20063;-70
2022/03/12 06:53:17;;;;;;;10.60;5.03;;;;;;;;;;5029735;28;20593;-69
2022/03/12 06:55:45;;;;;;;9.80;5.00;;;;;;;;;;5032788;28;20343;-69
2022/03/12 06:58:23;;;;;;;13.15;5.75;;;;;;;;;;5036230;28;20059;-69
2022/03/12 07:00:55;;;;;;;10.98;5.28;;;;;;;;;;5036302;28;20061;-69
2022/03/12 07:03:27;;;;;;;11.07;5.53;;;;;;;;;;5035015;28;20053;-69
2022/03/12 07:05:55;;;;;;;11.30;5.30;;;;;;;;;;5030602;28;20383;-69
2022/03/12 07:08:24;;;;;;;9.60;4.60;;;;;;;;;;5032292;28;20099;-69
2022/03/12 07:10:57;;;;;;;8.93;5.30;;;;;;;;;;5036737;28;20115;-71
2022/03/12 07:13:25;;;;;;;9.32;5.05;;;;;;;;;;5032006;28;20049;-71
2022/03/12 07:15:56;;;;;;;11.35;5.35;;;;;;;;;;5031958;28;20060;-71
2022/03/12 07:18:25;;;;;;;11.63;5.55;;;;;;;;;;5035585;28;20118;-71
2022/03/12 07:20:54;;;;;;;11.25;5.15;;;;;;;;;;5033858;28;20109;-71
2022/03/12 07:23:22;;;;;;;10.32;5.72;;;;;;;;;;5035920;28;20240;-71
2022/03/12 07:25:52;;;;;;;10.77;5.35;;;;;;;;;;5013527;28;20057;-80
2022/03/12 07:28:20;;;;;;;12.05;5.40;;;;;;;;;;5036704;28;20136;-79
2022/03/12 07:30:49;;;;;;;11.82;5.70;;;;;;;;;;5036700;28;20107;-72
2022/03/12 07:33:21;;;;;;;10.07;5.28;;;;;;;;;;5030553;28;20076;-73
2022/03/12 07:35:52;;;;;;;11.57;5.40;;;;;;;;;;5034463;28;20092;-71
2022/03/12 07:38:20;;;;;;;11.38;5.72;;;;;;;;;;5028993;28;20052;-72
2022/03/12 07:40:48;;;;;;;9.40;5.15;;;;;;;;;;5034912;28;20371;-73
2022/03/12 07:43:15;;;;;;;11.70;5.50;;;;;;;;;;5031391;28;20049;-72
2022/03/12 07:45:43;;;;;;;11.80;5.95;;;;;;;;;;5033754;28;20060;-70
2022/03/12 07:48:12;;;;;;;11.45;5.28;;;;;;;;;;5031414;28;20056;-72
2022/03/12 07:51:01;;;;;;;12.27;5.97;;;;;;;;;;5031093;28;20139;-79
2022/03/12 07:53:32;;;;;;;12.55;5.85;;;;;;;;;;5034910;28;20048;-73
2022/03/12 07:56:00;;;;;;;10.70;5.22;;;;;;;;;;5036752;28;20053;-79
2022/03/12 07:58:28;;;;;;;12.43;5.97;;;;;;;;;;5036980;28;20326;-78
2022/03/12 08:00:59;;;;;;;9.85;5.05;;;;;;;;;;5032995;28;20045;-72
2022/03/12 08:03:28;;;;;;;25.38;6.55;;;;;;;;;;5031970;28;20503;-73
2022/03/12 08:05:57;;;;;;;8.23;4.90;;;;;;;;;;5038353;28;20051;-79
2022/03/12 08:08:26;;;;;;;11.30;5.13;;;;;;;;;;5033432;28;20329;-79
2022/03/12 08:13:39;;;;;;;8.60;4.72;;;;;;;;;;5038490;28;20048;-81
2022/03/12 08:16:07;;;;;;;10.80;5.38;;;;;;;;;;5038224;28;20151;-79
2022/03/12 08:18:36;;;;;;;9.15;5.13;;;;;;;;;;5037911;28;20042;-79
2022/03/12 08:21:03;;;;;;;9.23;4.50;;;;;;;;;;5035321;28;20064;-79
2022/03/12 08:23:33;;;;;;;11.88;4.75;;;;;;;;;;5036132;28;20103;-80
2022/03/12 08:26:01;;;;;;;9.52;5.22;;;;;;;;;;5033242;28;20063;-80
2022/03/12 08:28:29;;;;;;;10.23;4.88;;;;;;;;;;5040639;28;20041;-81
2022/03/12 08:30:56;;;;;;;17.23;5.15;;;;;;;;;;5034228;28;20742;-81
2022/03/12 08:33:24;;;;;;;14.05;5.25;;;;;;;;;;5035323;28;20838;-73
2022/03/12 08:35:52;;;;;;;10.65;5.10;;;;;;;;;;5036936;28;20186;-74
2022/03/12 08:38:20;;;;;;;13.38;5.85;;;;;;;;;;5035081;28;20083;-73
2022/03/12 08:40:49;;;;;;;10.95;5.22;;;;;;;;;;5035470;28;20045;-73
2022/03/12 08:43:17;;;;;;;11.05;5.32;;;;;;;;;;5034253;28;20114;-72
2022/03/12 08:45:45;;;;;;;12.45;5.15;;;;;;;;;;5033829;28;20316;-72
2022/03/12 08:48:13;;;;;;;11.45;5.75;;;;;;;;;;5039800;28;20060;-72
2022/03/12 08:50:43;;;;;;;11.20;5.18;;;;;;;;;;5037344;28;20361;-72
2022/03/12 08:53:11;;;;;;;12.98;5.47;;;;;;;;;;5035489;28;20136;-72
2022/03/12 08:55:40;;;;;;;12.07;5.68;;;;;;;;;;5040028;28;20142;-80
2022/03/12 08:58:09;;;;;;;13.23;5.32;;;;;;;;;;5037261;28;20041;-80
2022/03/12 09:00:37;;;;;;;12.43;4.68;;;;;;;;;;5036770;28;20049;-79
2022/03/12 09:03:07;;;;;;;11.00;5.25;;;;;;;;;;5038697;28;20543;-80
2022/03/12 09:05:35;;;;;;;12.73;5.05;;;;;;;;;;5036642;28;20091;-79
2022/03/12 09:08:03;;;;;;;11.48;5.05;;;;;;;;;;5033628;28;20162;-80
2022/03/12 09:10:32;;;;;;;14.50;6.95;;;;;;;;;;5036025;28;20103;-80
2022/03/12 09:13:00;;;;;;;12.30;5.30;;;;;;;;;;5033518;28;20478;-80
2022/03/12 09:15:29;;;;;;;11.43;5.43;;;;;;;;;;5034506;28;20495;-78
2022/03/12 09:17:56;;;;;;;13.38;5.28;;;;;;;;;;5033510;28;20136;-79
2022/03/12 09:20:25;;;;;;;13.27;5.07;;;;;;;;;;5034428;28;20641;-79
2022/03/12 09:22:53;;;;;;;10.95;5.05;;;;;;;;;;5035089;28;20053;-80
2022/03/12 09:25:21;;;;;;;9.57;4.72;;;;;;;;;;5033723;28;20057;-79
2022/03/12 09:28:14;;;;;;;14.35;4.43;;;;;;;;;;5034503;28;20082;-80
2022/03/12 09:30:43;;;;;;;11.27;4.95;;;;;;;;;;5031912;28;20517;-80
2022/03/12 09:33:11;;;;;;;10.13;4.50;;;;;;;;;;5033585;28;20061;-79
2022/03/12 09:35:38;;;;;;;9.95;3.95;;;;;;;;;;5032321;28;20495;-72
2022/03/12 09:38:06;;;;;;;8.93;3.80;;;;;;;;;;5035474;28;20045;-73
2022/03/12 09:40:34;;;;;;;14.73;4.20;;;;;;;;;;5033006;28;20142;-73
2022/03/12 09:43:08;;;;;;;7.70;4.05;;;;;;;;;;5034123;28;20142;-74
2022/03/12 09:45:36;;;;;;;10.90;3.97;;;;;;;;;;5036804;28;20049;-80
2022/03/12 09:48:07;;;;;;;7.18;3.53;;;;;;;;;;5033276;28;20072;-81
2022/03/12 09:50:35;;;;;;;8.02;3.63;;;;;;;;;;5036924;28;20056;-81
2022/03/12 09:53:04;;;;;;;12.60;4.32;;;;;;;;;;5035145;28;20045;-80
2022/03/12 09:55:32;;;;;;;11.35;4.05;;;;;;;;;;5039299;28;20154;-73
2022/03/12 09:58:00;;;;;;;9.05;4.20;;;;;;;;;;5037648;28;20492;-73
2022/03/12 10:00:27;;;;;;;11.55;3.97;;;;;;;;;;5034399;28;20056;-73
2022/03/12 10:02:55;;;;;;;7.03;3.33;;;;;;;;;;5036331;28;20049;-73
2022/03/12 10:05:24;;;;;;;11.35;3.95;;;;;;;;;;5037464;28;20059;-80
2022/03/12 10:07:51;;;;;;;11.38;3.78;;;;;;;;;;5038791;28;20060;-76
2022/03/12 10:10:22;;;;;;;11.40;4.22;;;;;;;;;;5037407;28;20052;-77
2022/03/12 10:12:50;;;;;;;9.40;3.75;;;;;;;;;;5035568;28;20052;-78
2022/03/12 10:15:18;;;;;;;10.45;4.32;;;;;;;;;;5037464;28;20063;-78
2022/03/12 10:17:47;;;;;;;9.07;3.70;;;;;;;;;;5036262;28;20045;-76
2022/03/12 10:20:15;;;;;;;8.85;3.70;;;;;;;;;;5037429;28;20104;-77
2022/03/12 10:22:45;;;;;;;10.73;4.15;;;;;;;;;;5037232;28;20045;-78
2022/03/12 10:25:13;;;;;;;6.75;3.38;;;;;;;;;;5035002;28;20132;-77
2022/03/12 10:27:41;;;;;;;13.15;4.18;;;;;;;;;;5037063;28;20057;-77
2022/03/12 10:30:10;;;;;;;9.93;3.78;;;;;;;;;;5039651;28;20118;-76
2022/03/12 10:32:44;;;;;;;7.97;3.10;;;;;;;;;;5036155;28;20045;-77
2022/03/12 10:35:12;;;;;;;7.00;3.80;;;;;;;;;;5033806;28;20132;-73
2022/03/12 10:37:40;;;;;;;7.00;3.25;;;;;;;;;;5039415;28;20626;-72
2022/03/12 10:40:11;;;;;;;6.47;3.03;;;;;;;;;;5032656;28;20077;-72
2022/03/12 10:42:44;;;;;;;5.38;2.85;;;;;;;;;;5036692;28;20145;-72
2022/03/12 10:45:13;;;;;;;9.50;3.60;;;;;;;;;;5037385;28;20904;-72
2022/03/12 10:47:42;;;;;;;8.00;3.63;;;;;;;;;;5035801;28;20049;-72
2022/03/12 10:50:12;;;;;;;8.25;3.70;;;;;;;;;;5035455;28;20147;-78
2022/03/12 10:52:43;;;;;;;10.93;3.80;;;;;;;;;;5033616;28;20463;-72
2022/03/12 10:55:17;;;;;;;6.70;3.50;;;;;;;;;;5033535;28;20136;-73
2022/03/12 10:57:55;;;;;;;9.63;3.70;;;;;;;;;;5034818;28;20768;-71
2022/03/12 11:00:22;;;;;;;8.18;3.72;;;;;;;;;;5033947;28;20045;-73
2022/03/12 11:02:53;;;;;;;10.35;4.05;;;;;;;;;;5031413;28;20355;-74
2022/03/12 11:05:25;;;;;;;7.68;3.53;;;;;;;;;;5031842;28;20056;-73
2022/03/12 11:07:52;;;;;;;9.30;3.22;;;;;;;;;;5035838;28;20363;-75
2022/03/12 11:10:28;;;;;;;9.85;3.63;;;;;;;;;;5036447;28;20049;-78
2022/03/12 11:12:57;;;;;;;9.63;3.67;;;;;;;;;;5031120;28;20048;-75
2022/03/12 11:15:24;;;;;;;9.10;3.42;;;;;;;;;;5034312;28;20053;-76
2022/03/12 11:17:53;;;;;;;9.13;3.63;;;;;;;;;;5033661;28;20059;-75
2022/03/12 11:20:28;;;;;;;9.07;3.55;;;;;;;;;;5036519;28;20675;-74
2022/03/12 11:23:07;;;;;;;13.02;4.13;;;;;;;;;;5033656;28;20243;-75
2022/03/12 11:26:06;;;;;;;7.93;3.63;;;;;;;;;;5030717;28;20056;-75
2022/03/12 11:28:58;;;;;;;7.35;2.92;;;;;;;;;;5038295;28;20063;-75
2022/03/12 11:31:39;;;;;;;8.38;3.83;;;;;;;;;;5033738;28;20095;-75
2022/03/12 11:34:17;;;;;;;8.63;3.65;;;;;;;;;;5039360;28;20057;-75
2022/03/12 11:36:44;;;;;;;10.23;3.65;;;;;;;;;;5033366;28;20049;-76
2022/03/12 11:39:13;;;;;;;11.35;4.05;;;;;;;;;;5036232;28;20045;-77
2022/03/12 11:41:43;;;;;;;8.80;4.00;;;;;;;;;;5035082;28;20041;-76
2022/03/12 11:44:11;;;;;;;6.68;3.38;;;;;;;;;;5036839;28;20053;-75
2022/03/12 11:46:38;;;;;;;12.82;3.85;;;;;;;;;;5033470;28;20072;-76
2022/03/12 11:49:07;;;;;;;10.65;4.20;;;;;;;;;;5036010;28;20057;-73
2022/03/12 11:51:38;;;;;;;10.27;3.92;;;;;;;;;;5031332;28;20450;-73
2022/03/12 11:54:06;;;;;;;10.85;4.32;;;;;;;;;;5029585;28;20128;-74
2022/03/12 11:56:35;;;;;;;9.52;3.80;;;;;;;;;;5032133;28;20091;-74
2022/03/12 11:59:05;;;;;;;8.57;3.90;;;;;;;;;;5034606;28;20053;-76
2022/03/12 12:01:37;;;;;;;9.23;3.72;;;;;;;;;;5033932;28;20103;-76
2022/03/12 12:04:06;;;;;;;11.93;4.07;;;;;;;;;;5032912;28;20053;-74
2022/03/12 12:07:00;;;;;;;7.65;4.00;;;;;;;;;;5036665;28;20118;-72
2022/03/12 12:09:28;;;;;;;9.10;3.67;;;;;;;;;;5032024;28;20041;-76
2022/03/12 12:11:56;;;;;;;8.05;3.42;;;;;;;;;;5033941;28;20349;-76
2022/03/12 12:14:25;;;;;;;8.68;3.75;;;;;;;;;;5035371;28;20351;-76
2022/03/12 12:16:56;;;;;;;9.65;4.20;;;;;;;;;;5035819;28;20080;-75
2022/03/12 12:19:24;;;;;;;7.75;3.72;;;;;;;;;;5035234;28;20777;-73
2022/03/12 12:21:52;;;;;;;7.70;3.97;;;;;;;;;;5034092;28;20049;-76
2022/03/12 12:24:27;;;;;;;7.00;3.55;;;;;;;;;;5030403;28;20049;-77
2022/03/12 12:26:58;;;;;;;9.23;3.63;;;;;;;;;;5031258;28;20863;-75
2022/03/12 12:29:47;;;;;;;6.53;3.17;;;;;;;;;;5033979;28;20045;-76
2022/03/12 12:32:15;;;;;;;6.18;3.22;;;;;;;;;;5031979;28;20182;-76
2022/03/12 12:35:02;;;;;;;8.32;3.50;;;;;;;;;;5036247;28;20475;-76
2022/03/12 12:37:46;;;;;;;6.38;3.30;;;;;;;;;;5031864;28;20085;-76
2022/03/12 12:40:18;;;;;;;5.35;3.30;;;;;;;;;;5035306;28;20041;-76
2022/03/12 12:42:47;;;;;;;8.27;3.47;;;;;;;;;;5037074;28;20402;-76
2022/03/12 12:45:17;;;;;;;10.95;3.50;;;;;;;;;;5035405;28;20056;-75
2022/03/12 12:47:45;;;;;;;6.50;3.22;;;;;;;;;;5032821;28;20045;-76
2022/03/12 12:50:19;;;;;;;6.63;3.20;;;;;;;;;;5031484;28;20041;-72
2022/03/12 12:53:06;;;;;;;8.57;3.45;;;;;;;;;;5030040;28;20056;-73
2022/03/12 12:55:34;;;;;;;8.48;3.38;;;;;;;;;;5032430;28;20058;-68
2022/03/12 12:58:02;;;;;;;6.10;3.35;;;;;;;;;;5035936;28;20151;-71
2022/03/12 13:00:38;;;;;;;7.57;3.17;;;;;;;;;;5033925;28;20055;-71
2022/03/12 13:03:12;;;;;;;6.72;3.10;;;;;;;;;;5032168;28;20053;-72
2022/03/12 13:05:45;;;;;;;7.40;3.20;;;;;;;;;;5035478;28;20052;-71
2022/03/12 13:08:14;;;;;;;5.00;2.67;;;;;;;;;;5029326;28;20413;-71
2022/03/12 13:10:42;;;;;;;9.45;2.92;;;;;;;;;;5033531;28;20052;-70
2022/03/12 13:13:12;;;;;;;6.82;2.40;;;;;;;;;;5032505;28;20048;-71
2022/03/12 13:15:43;;;;;;;6.13;2.53;;;;;;;;;;5029068;28;20511;-71
2022/03/12 13:18:32;;;;;;;11.32;3.05;;;;;;;;;;5030554;28;20423;-74
2022/03/12 13:21:01;;;;;;;7.57;3.17;;;;;;;;;;5031563;28;20551;-71
2022/03/12 13:23:30;;;;;;;10.38;3.20;;;;;;;;;;5033299;28;20457;-77
2022/03/12 13:25:59;;;;;;;7.20;2.92;;;;;;;;;;5035383;28;20045;-71
2022/03/12 13:28:41;;;;;;;9.13;3.22;;;;;;;;;;5034470;28;20409;-72
2022/03/12 13:31:28;;;;;;;7.45;3.08;;;;;;;;;;5036744;28;20049;-71
2022/03/12 13:34:09;;;;;;;9.25;3.35;;;;;;;;;;5032042;28;20052;-72
2022/03/12 13:36:39;;;;;;;10.70;3.17;;;;;;;;;;5037163;28;20126;-71
2022/03/12 13:39:08;;;;;;;7.97;3.70;;;;;;;;;;5030541;28;20049;-71
2022/03/12 13:41:37;;;;;;;5.53;2.70;;;;;;;;;;5031752;28;20077;-73
2022/03/12 13:44:05;;;;;;;6.03;3.10;;;;;;;;;;5040232;28;20042;-74
2022/03/12 13:46:34;;;;;;;9.18;3.58;;;;;;;;;;5036916;28;20489;-73
2022/03/12 13:49:09;;;;;;;6.22;3.03;;;;;;;;;;5037715;28;20433;-78
2022/03/12 13:51:40;;;;;;;8.98;3.30;;;;;;;;;;5034970;28;20134;-77
2022/03/12 13:54:07;;;;;;;7.72;2.90;;;;;;;;;;5031824;28;20049;-77
2022/03/12 13:56:38;;;;;;;9.50;3.25;;;;;;;;;;5036459;28;20056;-76
2022/03/12 13:59:08;;;;;;;11.07;3.42;;;;;;;;;;5036131;28;20067;-76
2022/03/12 14:01:36;;;;;;;14.23;3.78;;;;;;;;;;5038589;28;20044;-76
2022/03/12 14:04:06;;;;;;;9.20;3.20;;;;;;;;;;5034560;28;20083;-77
2022/03/12 14:06:35;;;;;;;7.82;3.35;;;;;;;;;;5036392;28;20049;-78
2022/03/12 14:09:05;;;;;;;6.88;3.33;;;;;;;;;;5037740;28;20130;-77
2022/03/12 14:11:41;;;;;;;9.63;3.70;;;;;;;;;;5035185;28;20049;-79
2022/03/12 14:14:10;;;;;;;11.30;5.50;;;;;;;;;;5039451;28;20113;-78
2022/03/12 14:16:40;;;;;;;8.10;3.20;;;;;;;;;;5035032;28;20049;-77
2022/03/12 14:19:10;;;;;;;14.55;4.20;;;;;;;;;;5035254;28;20049;-76
2022/03/12 14:21:40;;;;;;;12.52;3.85;;;;;;;;;;5036978;28;20053;-70
2022/03/12 14:24:13;;;;;;;17.08;4.65;;;;;;;;;;5035596;28;20050;-70
2022/03/12 14:26:52;;;;;;;8.73;3.80;;;;;;;;;;5034250;28;20053;-69
2022/03/12 14:29:25;;;;;;;11.60;3.90;;;;;;;;;;5035108;28;20053;-74
2022/03/12 14:31:53;;;;;;;9.77;3.80;;;;;;;;;;5038865;28;20044;-78
2022/03/12 14:34:21;;;;;;;10.07;4.22;;;;;;;;;;5035725;28;20052;-76
2022/03/12 14:36:49;;;;;;;8.57;3.65;;;;;;;;;;5036228;28;20057;-76
2022/03/12 14:39:20;;;;;;;11.40;4.38;;;;;;;;;;5038304;28;20500;-75
2022/03/12 14:41:49;;;;;;;9.13;3.80;;;;;;;;;;5037426;28;20136;-73
2022/03/12 14:44:18;;;;;;;8.02;3.13;;;;;;;;;;5036632;28;20135;-73
2022/03/12 14:46:47;;;;;;;10.20;3.97;;;;;;;;;;5034859;28;20128;-74
2022/03/12 14:49:22;;;;;;;7.68;3.60;;;;;;;;;;5033568;28;20071;-73
2022/03/12 14:51:50;;;;;;;9.00;3.70;;;;;;;;;;5034266;28;20045;-74
2022/03/12 14:54:22;;;;;;;24.98;4.80;;;;;;;;;;5033527;28;20056;-74
2022/03/12 14:56:50;;;;;;;13.10;4.20;;;;;;;;;;5036733;28;20088;-77
2022/03/12 14:59:22;;;;;;;11.65;4.38;;;;;;;;;;5033956;28;20053;-78
2022/03/12 15:02:01;;;;;;;31.95;7.30;;;;;;;;;;5033968;28;20143;-76
2022/03/12 15:04:29;;;;;;;21.55;5.25;;;;;;;;;;5036043;28;20064;-71
2022/03/12 15:07:07;;;;;;;8.32;4.18;;;;;;;;;;5033221;28;20533;-75